Main page
METAR-TAF:

METAR-TAF

Airports :

Johannesburg, South Africa

O. R. Tambo International Airport

latitude: 26-08S, longitude: 028-14E, elevation: 1694 m

Current weather observation

The report was made 1 hour and 36 minutes ago, at 19:00 UTC
Wind 8 kt from the South/Southwest
Temperature 11°C
Humidity 24%
Pressure 1027 hPa
Visibility 10 km or more
no clouds below 1500 m and no cumulonimbus

METAR: FAOR 201900Z 21008KT CAVOK 11/M09 Q1027 NOSIG

Time: 22:36 (20:36 UTC)

Forecast

The report was made 4 hours and 36 minutes ago, at 16:00 UTC
Forecast valid from 20 at 18 UTC to 21 at 24 UTC
Wind 8 kt from the South
Visibility 10 km or more
no clouds below 1500 m and no cumulonimbus
Becoming
from 21 at 08 UTC to 21 at 10 UTC
Wind 7 kt from the North/Northwest

TAF: FAOR 201600Z 2018/2124 18008KT CAVOK BECMG 2108/2110 33007KT TX20/2113ZTN05/2104Z

Weather observations and forecasts of more than 4000 airports (METAR and TAF reports).

The available stations are represented by yellow and red dots on the map.

Hover mouse over dot to see the name of the station.

Then click to see weather observations and forecasts.

To change the map : click on the green buttons with a black cross to zoom in, on the green button with a dash to zoom out, or on the green arrows for adjacent maps.


METAR-TAF: